createdAt,value
2023-09-11T00:01:24.589Z,98448.00
2023-09-11T00:03:52.383Z,98443.00
2023-09-11T00:06:19.986Z,98441.00
2023-09-11T00:08:47.471Z,98444.00
2023-09-11T00:11:14.983Z,98441.00
2023-09-11T00:13:42.440Z,98434.00
2023-09-11T00:16:10.042Z,98428.00
2023-09-11T00:18:39.624Z,98427.00
2023-09-11T00:21:07.422Z,98426.00
2023-09-11T00:23:34.874Z,98429.00
2023-09-11T00:26:02.557Z,98428.00
2023-09-11T00:28:30.360Z,98423.00
2023-09-11T00:31:01.641Z,98426.00
2023-09-11T00:33:29.209Z,98424.00
2023-09-11T00:35:56.868Z,98415.00
2023-09-11T00:38:24.486Z,98420.00
2023-09-11T00:40:51.977Z,98418.00
2023-09-11T00:43:19.429Z,98414.00
2023-09-11T00:45:47.797Z,98423.00
2023-09-11T00:48:15.345Z,98413.00
2023-09-11T00:50:45.550Z,98408.00
2023-09-11T00:53:13.145Z,98409.00
2023-09-11T00:55:41.566Z,98411.00
2023-09-11T00:58:09.033Z,98407.00
2023-09-11T01:00:36.608Z,98406.00
2023-09-11T01:03:04.764Z,98401.00
2023-09-11T01:05:33.284Z,98397.00
2023-09-11T01:08:01.561Z,98395.00
2023-09-11T01:10:29.050Z,98400.00
2023-09-11T01:12:56.681Z,98397.00
2023-09-11T01:15:27.090Z,98402.00
2023-09-11T01:18:25.470Z,98405.00
2023-09-11T01:21:23.741Z,98396.00
2023-09-11T01:25:08.933Z,98396.00
2023-09-11T01:28:37.924Z,98382.00
2023-09-11T01:31:06.342Z,98382.00
2023-09-11T01:33:34.635Z,98384.00
2023-09-11T01:36:02.107Z,98386.00
2023-09-11T01:38:29.634Z,98378.00
2023-09-11T01:41:02.365Z,98391.00
2023-09-11T01:43:38.494Z,98384.00
2023-09-11T01:46:07.393Z,98389.00
2023-09-11T01:48:36.832Z,98393.00
2023-09-11T01:51:06.558Z,98389.00
2023-09-11T01:53:34.242Z,98382.00
2023-09-11T05:34:36.555Z,98360.00
2023-09-11T05:37:04.331Z,98355.00
2023-09-11T05:48:54.445Z,98356.00
2023-09-11T05:51:21.938Z,98351.00
2023-09-11T05:53:49.481Z,98355.00
2023-09-11T05:56:18.015Z,98351.00
2023-09-11T05:58:45.461Z,98355.00
2023-09-11T06:01:15.082Z,98359.00
2023-09-11T06:03:43.006Z,98351.00
2023-09-11T06:06:10.867Z,98361.00
2023-09-11T06:08:38.772Z,98352.00
2023-09-11T06:11:06.482Z,98350.00
2023-09-11T06:13:35.246Z,98348.00
2023-09-11T06:16:03.003Z,98357.00
2023-09-11T06:18:30.677Z,98364.00
2023-09-11T06:20:58.287Z,98358.00
2023-09-11T06:23:25.921Z,98356.00
2023-09-11T06:25:53.607Z,98363.00
2023-09-11T06:28:21.249Z,98353.00
2023-09-11T06:30:49.106Z,98361.00
2023-09-11T06:33:16.634Z,98368.00
2023-09-11T06:35:44.275Z,98366.00
2023-09-11T06:38:13.192Z,98369.00
2023-09-11T06:40:40.654Z,98371.00
2023-09-11T06:43:08.070Z,98364.00
2023-09-11T06:45:37.024Z,98364.00
2023-09-11T06:48:04.840Z,98371.00
2023-09-11T06:50:32.753Z,98362.00
2023-09-11T06:53:00.244Z,98360.00
2023-09-11T06:55:27.693Z,98370.00
2023-09-11T06:58:03.017Z,98364.00
2023-09-11T07:00:30.809Z,98369.00
2023-09-11T07:02:58.351Z,98369.00
2023-09-11T07:05:28.121Z,98364.00
2023-09-11T07:07:55.788Z,98371.00
2023-09-11T07:10:38.298Z,98370.00
2023-09-11T07:13:09.019Z,98362.00
2023-09-11T07:15:36.531Z,98366.00
2023-09-11T07:18:04.067Z,98361.00
2023-09-11T07:20:31.713Z,98362.00
2023-09-11T07:22:59.243Z,98361.00
2023-09-11T07:25:26.821Z,98363.00
2023-09-11T07:27:55.745Z,98360.00
2023-09-11T07:30:23.500Z,98359.00
2023-09-11T07:32:54.324Z,98358.00
2023-09-11T07:35:22.997Z,98361.00
2023-09-11T07:37:50.486Z,98363.00
2023-09-11T07:40:18.483Z,98354.00
2023-09-11T07:42:45.979Z,98348.00
2023-09-11T07:45:13.997Z,98358.00
2023-09-11T07:47:41.608Z,98360.00
2023-09-11T07:50:09.974Z,98353.00
2023-09-11T07:52:37.534Z,98355.00
2023-09-11T07:55:07.988Z,98351.00
2023-09-11T07:57:35.376Z,98346.00
2023-09-11T08:00:06.200Z,98359.00
2023-09-11T08:02:35.544Z,98359.00
2023-09-11T08:05:03.073Z,98354.00
2023-09-11T08:07:30.537Z,98369.00
2023-09-11T08:10:00.200Z,98353.00
2023-09-11T08:12:27.642Z,98360.00
2023-09-11T08:14:55.143Z,98353.00
2023-09-11T08:17:22.661Z,98363.00
2023-09-11T08:19:51.199Z,98364.00
2023-09-11T08:22:18.658Z,98355.00
2023-09-11T08:24:46.196Z,98358.00
2023-09-11T08:27:13.674Z,98357.00
2023-09-11T08:29:41.418Z,98356.00
2023-09-11T08:32:08.939Z,98357.00
2023-09-11T08:34:36.398Z,98353.00
2023-09-11T08:37:04.971Z,98354.00
2023-09-11T08:39:32.451Z,98356.00
2023-09-11T08:42:02.135Z,98353.00
2023-09-11T08:44:29.965Z,98352.00
2023-09-11T08:47:04.572Z,98350.00
2023-09-11T08:49:40.101Z,98351.00
2023-09-11T08:52:10.503Z,98351.00
2023-09-11T08:54:43.378Z,98353.00
2023-09-11T08:57:16.109Z,98349.00
2023-09-11T08:59:48.165Z,98344.00
2023-09-11T09:02:16.276Z,98344.00
2023-09-11T09:04:44.922Z,98343.00
2023-09-11T09:07:12.949Z,98350.00
2023-09-11T09:09:41.331Z,98342.00
2023-09-11T09:12:09.081Z,98341.00
2023-09-11T09:14:40.151Z,98348.00
2023-09-11T09:17:08.248Z,98340.00
2023-09-11T09:19:35.691Z,98312.00
2023-09-11T09:22:06.413Z,98342.00
2023-09-11T09:24:35.877Z,98339.00
2023-09-11T09:27:07.197Z,98328.00
2023-09-11T09:29:37.947Z,98322.00
2023-09-11T09:32:09.065Z,98322.00
2023-09-11T09:34:50.431Z,98321.00
2023-09-11T09:37:21.129Z,98328.00
2023-09-11T09:39:52.261Z,98329.00
2023-09-11T09:42:20.591Z,98313.00
2023-09-11T09:44:54.711Z,98304.00
2023-09-11T09:47:23.888Z,98323.00
2023-09-11T09:49:59.210Z,98320.00
2023-09-11T09:52:32.428Z,98311.00
2023-09-11T09:55:04.078Z,98302.00
2023-09-11T09:57:31.924Z,98318.00
2023-09-11T10:00:03.118Z,98322.00
2023-09-11T10:02:36.010Z,98312.00
2023-09-11T10:05:10.089Z,98304.00
2023-09-11T10:07:44.733Z,98297.00
2023-09-11T10:10:26.767Z,98312.00
2023-09-11T10:13:14.090Z,98283.00
2023-09-11T10:15:45.066Z,98299.00
2023-09-11T10:18:14.451Z,98309.00
2023-09-11T10:20:42.396Z,98286.00
2023-09-11T10:23:10.551Z,98309.00
2023-09-11T10:25:45.959Z,98295.00
2023-09-11T10:28:44.102Z,98289.00
2023-09-11T10:31:40.321Z,98275.00
2023-09-11T10:34:10.873Z,98268.00
2023-09-11T10:36:58.178Z,98260.00
2023-09-11T10:39:26.725Z,98263.00
2023-09-11T10:41:54.396Z,98269.00
2023-09-11T10:44:22.066Z,98230.00
2023-09-11T10:46:53.429Z,98271.00
2023-09-11T10:49:26.230Z,98260.00
2023-09-11T10:51:54.237Z,98270.00
2023-09-11T10:54:24.801Z,98218.00
2023-09-11T10:56:53.416Z,98255.00
2023-09-11T10:59:25.343Z,98241.00
2023-09-11T11:01:53.996Z,98245.00
2023-09-11T11:04:25.417Z,98255.00
2023-09-11T11:07:00.328Z,98250.00
2023-09-11T11:09:35.353Z,98243.00
2023-09-11T11:12:14.730Z,98241.00
2023-09-11T11:14:43.148Z,98229.00
2023-09-11T11:17:12.817Z,98238.00
2023-09-11T11:20:00.221Z,98232.00
2023-09-11T11:22:40.601Z,98217.00
2023-09-11T11:25:12.054Z,98236.00
2023-09-11T11:27:46.010Z,98237.00
2023-09-11T11:30:14.146Z,98232.00
2023-09-11T11:32:42.344Z,98196.00
2023-09-11T11:35:12.299Z,98225.00
2023-09-11T11:37:47.295Z,98214.00
2023-09-11T11:40:15.722Z,98202.00
2023-09-11T11:42:43.306Z,98191.00
2023-09-11T11:45:12.205Z,98209.00
2023-09-11T11:47:40.066Z,98222.00
2023-09-11T11:50:14.414Z,98225.00
2023-09-11T11:52:49.305Z,98221.00
2023-09-11T11:55:26.144Z,98196.00
2023-09-11T11:57:54.761Z,98203.00
2023-09-11T12:00:22.548Z,98219.00
2023-09-11T12:02:51.478Z,98204.00
2023-09-11T12:05:19.353Z,98205.00
2023-09-11T12:07:47.077Z,98211.00
2023-09-11T12:10:14.733Z,98197.00
2023-09-11T12:12:45.870Z,98206.00
2023-09-11T12:15:13.606Z,98194.00
2023-09-11T12:17:51.701Z,98175.00
2023-09-11T12:20:24.507Z,98201.00
2023-09-11T12:22:52.094Z,98200.00
2023-09-11T12:25:20.211Z,98179.00
2023-09-11T12:27:48.384Z,98197.00
2023-09-11T12:30:16.649Z,98162.00
2023-09-11T12:32:46.768Z,98194.00
2023-09-11T12:35:14.677Z,98197.00
2023-09-11T12:37:42.405Z,98168.00
2023-09-11T12:40:10.557Z,98193.00
2023-09-11T12:42:39.868Z,98185.00
2023-09-11T12:45:09.914Z,98180.00
2023-09-11T12:47:38.018Z,98178.00
2023-09-11T12:50:07.425Z,98174.00
2023-09-11T12:52:35.375Z,98165.00
2023-09-11T12:55:05.108Z,98172.00
2023-09-11T12:57:32.624Z,98164.00
2023-09-11T13:00:00.275Z,98139.00
2023-09-11T13:02:34.628Z,98156.00
2023-09-11T13:05:10.890Z,98156.00
2023-09-11T13:07:38.486Z,98158.00
2023-09-11T13:10:07.677Z,98156.00
2023-09-11T13:12:35.225Z,98151.00
2023-09-11T13:15:02.692Z,98156.00
2023-09-11T13:17:31.145Z,98162.00
2023-09-11T13:20:00.467Z,98151.00
2023-09-11T13:22:28.477Z,98141.00
2023-09-11T13:24:56.044Z,98151.00
2023-09-11T13:27:23.613Z,98116.00
2023-09-11T13:29:51.209Z,98143.00
2023-09-11T13:32:18.848Z,98145.00
2023-09-11T13:34:46.676Z,98136.00
2023-09-11T13:37:14.781Z,98140.00
2023-09-11T13:39:43.079Z,98137.00
2023-09-11T13:42:10.966Z,98136.00
2023-09-11T13:44:38.638Z,98126.00
2023-09-11T13:47:06.261Z,98126.00
2023-09-11T13:49:33.939Z,98126.00
2023-09-11T13:52:01.376Z,98109.00
2023-09-11T13:54:28.865Z,98112.00
2023-09-11T13:56:56.465Z,98116.00
2023-09-11T13:59:24.283Z,98112.00
2023-09-11T14:01:51.888Z,98103.00
2023-09-11T14:04:19.580Z,98097.00
2023-09-11T14:06:47.141Z,98101.00
2023-09-11T14:09:14.725Z,98107.00
2023-09-11T14:11:42.300Z,98094.00
2023-09-11T14:14:09.774Z,98098.00
2023-09-11T14:16:37.305Z,98114.00
2023-09-11T14:19:09.105Z,98082.00
2023-09-11T14:21:36.858Z,98099.00
2023-09-11T14:24:05.628Z,98103.00
2023-09-11T14:26:33.271Z,98098.00
2023-09-11T14:29:00.749Z,98089.00
2023-09-11T14:31:29.288Z,98098.00
2023-09-11T14:33:57.474Z,98095.00
2023-09-11T14:36:25.057Z,98040.00
2023-09-11T14:38:53.254Z,98074.00
2023-09-11T14:41:20.837Z,98078.00
2023-09-11T14:43:48.328Z,98090.00
2023-09-11T14:46:15.831Z,98087.00
2023-09-11T14:48:43.631Z,98086.00
2023-09-11T14:51:11.597Z,98067.00
2023-09-11T14:53:43.030Z,98060.00
2023-09-11T14:56:10.551Z,98033.00
2023-09-11T14:58:38.023Z,98053.00
2023-09-11T15:01:05.730Z,98051.00
2023-09-11T15:03:33.347Z,98047.00
2023-09-11T15:06:00.982Z,98031.00
2023-09-11T15:08:28.462Z,98042.00
2023-09-11T15:11:03.115Z,98031.00
2023-09-11T15:13:31.851Z,98039.00
2023-09-11T15:15:59.997Z,98053.00
2023-09-11T15:18:28.059Z,98051.00
2023-09-11T15:20:56.063Z,98013.00
2023-09-11T15:23:23.674Z,98032.00
2023-09-11T15:25:51.196Z,98037.00
2023-09-11T15:28:18.706Z,98011.00
2023-09-11T15:30:53.043Z,98041.00
2023-09-11T15:33:21.390Z,98036.00
2023-09-11T15:36:08.185Z,98038.00
2023-09-11T15:38:42.260Z,98032.00
2023-09-11T15:41:12.222Z,98030.00
2023-09-11T15:43:43.971Z,98032.00
2023-09-11T15:46:21.919Z,98027.00
2023-09-11T15:48:52.480Z,98018.00
2023-09-11T15:51:20.012Z,98013.00
2023-09-11T15:53:47.561Z,98017.00
2023-09-11T15:56:16.058Z,98015.00
2023-09-11T15:58:45.737Z,98021.00
2023-09-11T16:01:13.302Z,98012.00
2023-09-11T16:03:40.923Z,98026.00
2023-09-11T16:06:09.442Z,98024.00
2023-09-11T16:08:36.970Z,98025.00
2023-09-11T16:11:04.597Z,98010.00
2023-09-11T16:13:32.038Z,98014.00
2023-09-11T16:15:59.784Z,98010.00
2023-09-11T16:18:27.423Z,98013.00
2023-09-11T16:20:55.009Z,98006.00
2023-09-11T16:23:22.579Z,98005.00
2023-09-11T16:25:50.234Z,98008.00
2023-09-11T16:28:17.989Z,98008.00
2023-09-11T16:30:45.456Z,98017.00
2023-09-11T16:33:14.314Z,98009.00
2023-09-11T16:35:43.087Z,98016.00
2023-09-11T16:38:10.594Z,98010.00
2023-09-11T16:40:38.089Z,98009.00
2023-09-11T16:43:05.551Z,98014.00
2023-09-11T16:45:33.074Z,98016.00
2023-09-11T16:48:00.690Z,98009.00
2023-09-11T16:50:28.195Z,98013.00
2023-09-11T16:52:57.195Z,98010.00
2023-09-11T16:55:24.868Z,98010.00
2023-09-11T16:57:52.365Z,98014.00
2023-09-11T17:00:21.919Z,98013.00
2023-09-11T17:02:52.168Z,98011.00
2023-09-11T17:05:20.306Z,98014.00
2023-09-11T17:07:48.138Z,98013.00
2023-09-11T17:10:19.578Z,98018.00
2023-09-11T17:12:47.003Z,98024.00
2023-09-11T17:15:14.577Z,98016.00
2023-09-11T17:17:45.733Z,98014.00
2023-09-11T17:20:16.559Z,98018.00
2023-09-11T17:22:44.136Z,98015.00
2023-09-11T17:25:11.804Z,98021.00
2023-09-11T17:27:39.307Z,98013.00
2023-09-11T17:30:08.322Z,98010.00
2023-09-11T17:32:40.461Z,98023.00
2023-09-11T17:35:08.599Z,98014.00
2023-09-11T17:37:41.323Z,98012.00
2023-09-11T17:40:09.533Z,98013.00
2023-09-11T17:42:38.775Z,98012.00
2023-09-11T17:45:10.397Z,97990.00
2023-09-11T17:47:39.180Z,98003.00
2023-09-11T17:50:08.204Z,98000.00
2023-09-11T17:52:35.846Z,98000.00
2023-09-11T17:55:04.086Z,98003.00
2023-09-11T17:57:32.967Z,98006.00
2023-09-11T18:00:00.743Z,98004.00
2023-09-11T18:02:28.389Z,98004.00
2023-09-11T18:04:58.970Z,98012.00
2023-09-11T18:07:26.802Z,98023.00
2023-09-11T18:09:54.249Z,98024.00
2023-09-11T18:12:21.873Z,98024.00
2023-09-11T18:14:49.704Z,98032.00
2023-09-11T18:17:17.870Z,98033.00
2023-09-11T18:19:45.410Z,98032.00
2023-09-11T18:22:13.308Z,98043.00
2023-09-11T18:24:43.314Z,98038.00
2023-09-11T18:27:11.002Z,98053.00
2023-09-11T18:29:38.601Z,98048.00
2023-09-11T18:32:06.226Z,98055.00
2023-09-11T18:34:33.887Z,98055.00
2023-09-11T18:37:01.353Z,98059.00
2023-09-11T18:39:29.021Z,98064.00
2023-09-11T18:41:59.029Z,98065.00
2023-09-11T18:44:27.769Z,98054.00
2023-09-11T18:46:55.587Z,98057.00
2023-09-11T18:49:23.135Z,98067.00
2023-09-11T18:51:56.962Z,98066.00
2023-09-11T18:54:26.623Z,98066.00
2023-09-11T18:56:58.618Z,98077.00
2023-09-11T18:59:26.159Z,98071.00
2023-09-11T19:02:02.306Z,98072.00
2023-09-11T19:04:31.266Z,98069.00
2023-09-11T19:07:00.131Z,98076.00
2023-09-11T19:09:27.650Z,98082.00
2023-09-11T19:11:55.185Z,98085.00
2023-09-11T19:14:22.644Z,98075.00
2023-09-11T19:16:50.119Z,98074.00
2023-09-11T19:19:19.277Z,98081.00
2023-09-11T19:21:47.186Z,98078.00
2023-09-11T19:24:14.983Z,98082.00
2023-09-11T19:26:42.894Z,98079.00
2023-09-11T19:29:10.371Z,98077.00
2023-09-11T19:31:38.379Z,98074.00
2023-09-11T19:34:05.964Z,98074.00
2023-09-11T19:36:33.512Z,98079.00
2023-09-11T19:39:01.051Z,98079.00
2023-09-11T19:41:28.531Z,98087.00
2023-09-11T19:43:55.969Z,98096.00
2023-09-11T19:46:23.513Z,98092.00
2023-09-11T19:48:51.183Z,98086.00
2023-09-11T19:51:19.435Z,98085.00
2023-09-11T19:53:46.915Z,98081.00
2023-09-11T19:56:14.380Z,98099.00
2023-09-11T19:58:42.080Z,98086.00
2023-09-11T20:01:09.776Z,98097.00
2023-09-11T20:03:37.609Z,98086.00
2023-09-11T20:06:05.243Z,98090.00
2023-09-11T20:08:32.706Z,98087.00
2023-09-11T20:11:00.184Z,98092.00
2023-09-11T20:13:30.297Z,98088.00
2023-09-11T20:15:57.880Z,98090.00
2023-09-11T20:18:25.449Z,98095.00
2023-09-11T20:20:53.034Z,98096.00
2023-09-11T20:23:21.766Z,98089.00
2023-09-11T20:25:49.270Z,98086.00
2023-09-11T20:28:16.692Z,98091.00
2023-09-11T20:30:44.643Z,98086.00
2023-09-11T20:33:12.155Z,98084.00
2023-09-11T20:35:41.396Z,98089.00
2023-09-11T20:38:08.909Z,98090.00
2023-09-11T20:40:36.544Z,98088.00
2023-09-11T20:43:04.651Z,98086.00
2023-09-11T20:45:32.601Z,98086.00
2023-09-11T20:48:00.241Z,98093.00
2023-09-11T20:50:27.823Z,98093.00
2023-09-11T20:52:56.000Z,98098.00
2023-09-11T20:55:23.692Z,98099.00
2023-09-11T20:57:51.619Z,98093.00
2023-09-11T21:00:19.279Z,98097.00
2023-09-11T21:02:46.841Z,98093.00
2023-09-11T21:05:14.540Z,98092.00
2023-09-11T21:07:43.467Z,98096.00
2023-09-11T21:10:11.914Z,98095.00
2023-09-11T21:12:57.497Z,98091.00
2023-09-11T21:15:28.018Z,98091.00
2023-09-11T21:17:56.258Z,98087.00
2023-09-11T21:20:24.087Z,98090.00
2023-09-11T21:22:51.684Z,98089.00
2023-09-11T21:25:19.625Z,98087.00
2023-09-11T21:27:47.223Z,98093.00
2023-09-11T21:30:14.813Z,98100.00
2023-09-11T21:32:42.353Z,98103.00
2023-09-11T21:35:10.053Z,98108.00
2023-09-11T21:37:38.888Z,98112.00
2023-09-11T21:40:07.682Z,98101.00
2023-09-11T21:42:35.457Z,98103.00
2023-09-11T21:45:03.603Z,98105.00
2023-09-11T21:47:31.487Z,98097.00
2023-09-11T21:49:59.065Z,98110.00
2023-09-11T21:52:26.574Z,98113.00
2023-09-11T21:54:54.126Z,98110.00
2023-09-11T21:57:21.668Z,98101.00
2023-09-11T21:59:49.113Z,98095.00
2023-09-11T22:02:19.099Z,98096.00
2023-09-11T22:04:55.431Z,98096.00
2023-09-11T22:07:22.845Z,98075.00
2023-09-11T22:09:50.359Z,98095.00
2023-09-11T22:12:17.886Z,98100.00
2023-09-11T22:14:47.158Z,98112.00
2023-09-11T22:17:14.858Z,98103.00
2023-09-11T22:19:42.305Z,98108.00
2023-09-11T22:22:09.737Z,98104.00
2023-09-11T22:24:37.353Z,98096.00
2023-09-11T22:27:17.258Z,98096.00
2023-09-11T22:29:50.224Z,98095.00
2023-09-11T22:32:17.770Z,98100.00
2023-09-11T22:34:45.365Z,98097.00
2023-09-11T22:37:13.134Z,98096.00
2023-09-11T22:39:40.995Z,98096.00
2023-09-11T22:42:08.556Z,98098.00
2023-09-11T22:44:36.150Z,98094.00
2023-09-11T22:47:04.962Z,98088.00
2023-09-11T22:49:32.727Z,98086.00
2023-09-11T22:52:00.761Z,98076.00
2023-09-11T22:54:29.531Z,98072.00
2023-09-11T22:56:57.121Z,98083.00
2023-09-11T22:59:24.623Z,98081.00
2023-09-11T23:01:52.146Z,98082.00
2023-09-11T23:04:19.973Z,98082.00
2023-09-11T23:06:47.527Z,98085.00
2023-09-11T23:09:15.011Z,98089.00
2023-09-11T23:11:42.431Z,98092.00
2023-09-11T23:14:09.953Z,98096.00
2023-09-11T23:16:37.450Z,98090.00
2023-09-11T23:19:04.950Z,98089.00
2023-09-11T23:21:32.513Z,98092.00
2023-09-11T23:24:13.459Z,98087.00
2023-09-11T23:26:45.535Z,98088.00
2023-09-11T23:29:13.106Z,98084.00
2023-09-11T23:31:40.605Z,98081.00
2023-09-11T23:34:08.142Z,98082.00
2023-09-11T23:36:36.545Z,98075.00
2023-09-11T23:39:04.911Z,98084.00
2023-09-11T23:41:32.545Z,98079.00
2023-09-11T23:44:00.456Z,98084.00
2023-09-11T23:46:30.302Z,98082.00
2023-09-11T23:48:58.225Z,98081.00
2023-09-11T23:51:25.880Z,98093.00
2023-09-11T23:53:53.622Z,98092.00
2023-09-11T23:56:21.042Z,98082.00
2023-09-11T23:58:48.465Z,98087.00
